createdAt,value
2023-04-04T00:00:12.609Z,3.67
2023-04-04T00:02:41.571Z,3.60
2023-04-04T00:05:10.567Z,3.30
2023-04-04T00:07:40.212Z,3.57
2023-04-04T00:10:13.978Z,3.80
2023-04-04T00:12:43.700Z,4.10
2023-04-04T00:15:13.386Z,4.73
2023-04-04T00:17:41.916Z,3.60
2023-04-04T00:20:12.846Z,3.50
2023-04-04T00:22:41.341Z,4.43
2023-04-04T00:25:11.579Z,4.57
2023-04-04T00:27:39.858Z,4.90
2023-04-04T00:30:10.869Z,4.83
2023-04-04T00:32:39.238Z,4.77
2023-04-04T00:35:07.998Z,4.40
2023-04-04T00:37:36.577Z,3.00
2023-04-04T00:40:05.629Z,3.43
2023-04-04T00:42:37.563Z,2.70
2023-04-04T00:45:08.364Z,3.53
2023-04-04T00:47:38.283Z,3.97
2023-04-04T00:50:08.175Z,3.23
2023-04-04T00:52:37.565Z,3.67
2023-04-04T00:55:08.402Z,3.60
2023-04-04T00:57:40.288Z,3.20
2023-04-04T01:05:56.482Z,3.50
2023-04-04T01:08:28.632Z,3.60
2023-04-04T01:10:57.667Z,3.10
2023-04-04T01:13:29.716Z,3.33
2023-04-04T01:15:58.909Z,3.07
2023-04-04T01:18:28.715Z,3.63
2023-04-04T01:21:02.129Z,3.20
2023-04-04T01:23:40.734Z,3.67
2023-04-04T01:26:11.542Z,4.00
2023-04-04T01:28:40.635Z,3.63
2023-04-04T01:34:04.789Z,3.90
2023-04-04T01:36:49.487Z,3.80
2023-04-04T01:39:26.403Z,4.23
2023-04-04T01:42:02.293Z,3.60
2023-04-04T01:44:33.218Z,3.33
2023-04-04T01:47:02.872Z,3.93
2023-04-04T01:49:32.172Z,3.50
2023-04-04T01:52:02.536Z,3.73
2023-04-04T01:54:33.623Z,3.90
2023-04-04T01:57:09.203Z,3.50
2023-04-04T01:59:38.023Z,3.90
2023-04-04T02:02:15.366Z,3.87
2023-04-04T02:04:51.185Z,3.67
2023-04-04T02:07:26.200Z,4.23
2023-04-04T02:09:59.184Z,3.93
2023-04-04T02:12:32.153Z,3.97
2023-04-04T02:15:02.696Z,5.57
2023-04-04T02:17:32.661Z,5.47
2023-04-04T02:20:02.115Z,5.97
2023-04-04T02:37:22.065Z,4.60
2023-04-04T02:39:53.249Z,5.53
2023-04-04T02:42:33.516Z,5.20
2023-04-04T02:45:05.067Z,5.10
2023-04-04T02:47:33.905Z,5.60
2023-04-04T02:50:02.847Z,5.27
2023-04-04T02:52:34.125Z,5.67
2023-04-04T02:55:03.772Z,5.43
2023-04-04T02:57:32.846Z,4.70
2023-04-04T03:00:03.371Z,5.07
2023-04-04T03:05:23.675Z,4.70
2023-04-04T03:07:58.528Z,5.37
2023-04-04T03:10:30.133Z,5.07
2023-04-04T03:12:59.232Z,5.50
2023-04-04T03:15:31.158Z,5.93
2023-04-04T03:18:02.720Z,5.13
2023-04-04T03:20:32.322Z,4.90
2023-04-04T03:23:03.148Z,5.43
2023-04-04T03:25:31.503Z,5.30
2023-04-04T03:28:00.396Z,5.30
2023-04-04T03:30:28.828Z,5.27
2023-04-04T03:32:57.813Z,5.47
2023-04-04T03:35:26.379Z,5.50
2023-04-04T03:37:54.916Z,5.77
2023-04-04T03:40:24.497Z,5.43
2023-04-04T03:42:53.736Z,6.23
2023-04-04T03:45:22.718Z,5.90
2023-04-04T03:47:51.419Z,6.30
2023-04-04T03:50:19.825Z,6.30
2023-04-04T03:52:48.680Z,6.30
2023-04-04T03:55:17.255Z,6.33
2023-04-04T03:57:47.781Z,6.50
2023-04-04T04:00:16.968Z,7.57
2023-04-04T04:02:45.232Z,6.70
2023-04-04T04:05:15.689Z,7.27
2023-04-04T04:07:48.705Z,7.50
2023-04-04T04:10:18.744Z,7.17
2023-04-04T04:12:53.451Z,7.57
2023-04-04T04:15:22.387Z,7.13
2023-04-04T04:17:51.446Z,7.10
2023-04-04T04:20:29.838Z,7.03
2023-04-04T04:23:02.776Z,7.60
2023-04-04T04:25:47.491Z,8.27
2023-04-04T04:28:21.325Z,7.50
2023-04-04T04:30:50.381Z,7.70
2023-04-04T04:33:26.250Z,7.90
2023-04-04T04:41:23.074Z,8.60
2023-04-04T04:43:52.728Z,7.70
2023-04-04T04:46:21.590Z,7.30
2023-04-04T04:48:49.838Z,7.67
2023-04-04T04:51:18.483Z,7.67
2023-04-04T04:53:47.223Z,7.60
2023-04-04T04:56:16.847Z,7.97
2023-04-04T04:58:53.376Z,7.30
2023-04-04T05:01:54.505Z,7.27
2023-04-04T05:04:25.046Z,7.83
2023-04-04T05:06:54.114Z,7.30
2023-04-04T05:09:23.895Z,7.53
2023-04-04T05:11:53.052Z,8.10
2023-04-04T05:14:23.212Z,7.53
2023-04-04T05:16:52.622Z,8.23
2023-04-04T05:19:20.891Z,7.67
2023-04-04T05:21:52.334Z,8.10
2023-04-04T05:24:29.009Z,7.63
2023-04-04T05:26:58.409Z,7.27
2023-04-04T05:29:27.102Z,8.27
2023-04-04T05:31:56.195Z,8.33
2023-04-04T05:34:27.056Z,8.00
2023-04-04T05:37:03.159Z,8.00
2023-04-04T05:39:37.232Z,8.43
2023-04-04T05:44:50.661Z,7.57
2023-04-04T05:47:29.744Z,7.77
2023-04-04T05:50:02.402Z,8.40
2023-04-04T05:56:17.214Z,8.23
2023-04-04T05:58:49.557Z,7.53
2023-04-04T06:05:01.883Z,7.37
2023-04-04T06:07:35.586Z,7.30
2023-04-04T06:10:22.360Z,7.93
2023-04-04T06:12:52.696Z,8.00
2023-04-04T06:18:05.184Z,7.90
2023-04-04T06:20:34.377Z,7.20
2023-04-04T06:23:06.609Z,6.87
2023-04-04T06:25:37.205Z,6.60
2023-04-04T06:28:11.643Z,7.17
2023-04-04T06:30:41.005Z,6.87
2023-04-04T06:33:09.752Z,7.27
2023-04-04T06:35:39.886Z,6.50
2023-04-04T06:38:09.848Z,6.33
2023-04-04T06:40:38.580Z,6.43
2023-04-04T06:43:22.162Z,6.30
2023-04-04T06:45:56.670Z,6.27
2023-04-04T06:48:27.328Z,6.13
2023-04-04T06:50:58.624Z,7.23
2023-04-04T06:53:28.371Z,6.77
2023-04-04T06:55:57.226Z,6.80
2023-04-04T06:58:35.639Z,6.30
2023-04-04T07:01:06.725Z,6.40
2023-04-04T07:03:35.392Z,6.27
2023-04-04T07:06:13.755Z,6.60
2023-04-04T07:08:43.924Z,6.63
2023-04-04T07:11:12.765Z,6.00
2023-04-04T07:13:44.652Z,6.87
2023-04-04T07:16:13.061Z,6.47
2023-04-04T07:18:41.485Z,6.13
2023-04-04T07:21:09.793Z,6.87
2023-04-04T07:23:37.970Z,6.80
2023-04-04T07:26:06.947Z,6.47
2023-04-04T07:28:35.400Z,5.83
2023-04-04T07:31:04.991Z,6.40
2023-04-04T07:33:33.009Z,6.10
2023-04-04T07:36:02.923Z,6.40
2023-04-04T07:38:31.348Z,6.40
2023-04-04T07:40:59.458Z,6.13
2023-04-04T07:43:27.527Z,6.23
2023-04-04T07:45:55.992Z,6.10
2023-04-04T07:48:26.888Z,6.20
2023-04-04T07:50:55.730Z,6.83
2023-04-04T07:53:23.853Z,5.97
2023-04-04T07:55:54.688Z,6.00
2023-04-04T07:58:23.238Z,6.60
2023-04-04T08:00:51.548Z,6.87
2023-04-04T08:03:20.199Z,6.57
2023-04-04T08:05:52.245Z,6.83
2023-04-04T08:14:13.489Z,6.30
2023-04-04T08:16:41.807Z,6.13
2023-04-04T08:19:10.014Z,6.47
2023-04-04T08:21:40.116Z,6.50
2023-04-04T08:24:09.335Z,6.43
2023-04-04T08:26:37.699Z,6.63
2023-04-04T08:29:07.130Z,6.03
2023-04-04T08:31:35.736Z,6.50
2023-04-04T08:34:04.844Z,6.17
2023-04-04T08:36:33.039Z,6.33
2023-04-04T08:39:03.876Z,6.37
2023-04-04T08:41:35.956Z,6.67
2023-04-04T08:44:06.456Z,5.93
2023-04-04T08:46:34.857Z,6.20
2023-04-04T08:49:04.825Z,5.80
2023-04-04T08:51:35.135Z,5.80
2023-04-04T08:54:05.161Z,6.57
2023-04-04T08:56:35.458Z,5.57
2023-04-04T08:59:04.102Z,5.30
2023-04-04T09:01:33.525Z,5.50
2023-04-04T09:04:03.265Z,5.30
2023-04-04T09:06:32.251Z,5.90
2023-04-04T09:09:01.968Z,6.10
2023-04-04T09:11:33.213Z,5.70
2023-04-04T09:14:04.583Z,5.80
2023-04-04T09:16:33.274Z,6.10
2023-04-04T09:19:01.388Z,7.30
2023-04-04T09:21:29.517Z,5.67
2023-04-04T09:24:01.433Z,6.00
2023-04-04T09:26:29.484Z,6.50
2023-04-04T09:28:59.072Z,6.73
2023-04-04T09:31:27.492Z,5.60
2023-04-04T09:33:55.808Z,5.90
2023-04-04T09:36:25.333Z,5.80
2023-04-04T09:38:55.302Z,6.00
2023-04-04T09:41:23.686Z,5.80
2023-04-04T09:43:52.633Z,6.10
2023-04-04T09:46:22.517Z,5.90
2023-04-04T09:48:51.696Z,5.40
2023-04-04T09:51:20.195Z,5.57
2023-04-04T09:53:50.162Z,5.57
2023-04-04T09:56:26.033Z,5.43
2023-04-04T09:59:03.399Z,5.10
2023-04-04T10:01:34.761Z,5.17
2023-04-04T10:04:05.609Z,5.60
2023-04-04T10:06:33.749Z,5.60
2023-04-04T10:09:04.198Z,5.97
2023-04-04T10:11:34.056Z,6.27
2023-04-04T10:14:04.232Z,4.80
2023-04-04T10:16:38.324Z,5.87
2023-04-04T10:19:08.791Z,5.60
2023-04-04T10:21:37.532Z,5.07
2023-04-04T10:24:10.213Z,5.53
2023-04-04T10:26:38.627Z,5.40
2023-04-04T10:29:07.406Z,5.30
2023-04-04T10:31:41.153Z,5.77
2023-04-04T10:34:13.872Z,4.60
2023-04-04T10:36:47.428Z,5.20
2023-04-04T10:39:20.300Z,5.33
2023-04-04T10:41:52.925Z,5.07
2023-04-04T10:44:29.478Z,5.17
2023-04-04T10:47:15.706Z,5.20
2023-04-04T10:49:45.910Z,4.93
2023-04-04T10:52:17.145Z,4.70
2023-04-04T10:54:46.325Z,5.17
2023-04-04T10:57:16.778Z,4.87
2023-04-04T10:59:58.082Z,4.70
2023-04-04T11:02:51.578Z,5.67
2023-04-04T11:05:25.322Z,4.30
2023-04-04T11:08:08.285Z,4.60
2023-04-04T11:10:38.878Z,4.60
2023-04-04T11:13:14.090Z,4.37
2023-04-04T11:15:55.810Z,4.23
2023-04-04T11:18:50.030Z,4.17
2023-04-04T11:21:20.093Z,3.90
2023-04-04T11:24:17.087Z,4.60
2023-04-04T11:26:47.305Z,4.00
2023-04-04T11:29:24.122Z,3.80
2023-04-04T11:31:53.328Z,3.80
2023-04-04T11:34:34.874Z,3.77
2023-04-04T11:37:17.928Z,4.17
2023-04-04T11:39:56.766Z,3.90
2023-04-04T11:42:25.053Z,3.67
2023-04-04T11:45:07.721Z,4.37
2023-04-04T11:47:36.877Z,4.13
2023-04-04T11:50:11.025Z,3.97
2023-04-04T11:52:39.619Z,4.00
2023-04-04T11:55:17.301Z,3.80
2023-04-04T11:57:45.524Z,3.77
2023-04-04T12:00:28.918Z,3.70
2023-04-04T12:02:57.547Z,4.27
2023-04-04T12:05:29.110Z,4.53
2023-04-04T12:07:57.601Z,3.97
2023-04-04T12:10:26.095Z,3.90
2023-04-04T12:12:57.410Z,3.83
2023-04-04T12:15:26.237Z,4.10
2023-04-04T12:17:54.541Z,3.97
2023-04-04T12:20:24.272Z,3.70
2023-04-04T12:22:54.238Z,3.60
2023-04-04T12:25:24.692Z,4.10
2023-04-04T12:27:54.290Z,4.00
2023-04-04T12:30:23.164Z,3.67
2023-04-04T12:32:52.132Z,3.80
2023-04-04T12:35:20.876Z,4.27
2023-04-04T12:38:07.533Z,3.70
2023-04-04T12:40:38.591Z,3.50
2023-04-04T12:43:09.264Z,3.70
2023-04-04T12:45:41.228Z,3.83
2023-04-04T12:48:14.288Z,3.80
2023-04-04T12:50:53.682Z,4.13
2023-04-04T12:53:29.402Z,4.17
2023-04-04T12:56:03.212Z,3.73
2023-04-04T12:58:34.937Z,4.00
2023-04-04T13:01:05.036Z,4.13
2023-04-04T13:03:35.267Z,4.00
2023-04-04T13:06:03.879Z,4.33
2023-04-04T13:08:34.241Z,4.73
2023-04-04T13:11:06.382Z,4.07
2023-04-04T13:13:36.114Z,3.87
2023-04-04T13:16:05.178Z,4.50
2023-04-04T13:18:37.457Z,3.93
2023-04-04T13:21:07.262Z,3.53
2023-04-04T13:23:39.664Z,4.17
2023-04-04T13:26:11.035Z,4.23
2023-04-04T13:28:39.730Z,4.30
2023-04-04T13:31:10.134Z,4.40
2023-04-04T13:33:39.018Z,3.80
2023-04-04T13:36:07.780Z,4.00
2023-04-04T13:38:37.291Z,4.23
2023-04-04T13:41:05.338Z,4.03
2023-04-04T13:43:33.275Z,3.63
2023-04-04T13:46:01.411Z,3.93
2023-04-04T13:48:31.424Z,4.00
2023-04-04T13:50:59.507Z,3.77
2023-04-04T13:53:27.507Z,3.80
2023-04-04T13:56:17.052Z,3.40
2023-04-04T13:58:45.292Z,4.57
2023-04-04T14:01:13.671Z,4.13
2023-04-04T14:03:41.968Z,4.27
2023-04-04T14:06:11.258Z,3.50
2023-04-04T14:08:40.121Z,4.07
2023-04-04T14:11:09.833Z,3.60
2023-04-04T14:13:42.701Z,3.57
2023-04-04T14:16:10.841Z,3.33
2023-04-04T14:18:39.323Z,3.67
2023-04-04T14:21:08.024Z,4.47
2023-04-04T14:23:37.174Z,4.13
2023-04-04T14:26:05.399Z,4.10
2023-04-04T14:28:35.680Z,3.83
2023-04-04T14:31:06.577Z,3.50
2023-04-04T14:33:34.932Z,3.45
2023-04-04T14:36:03.686Z,3.92
2023-04-04T14:38:34.637Z,3.17
2023-04-04T14:41:03.478Z,3.80
2023-04-04T14:43:31.660Z,3.03
2023-04-04T14:46:04.672Z,3.22
2023-04-04T14:48:35.623Z,3.20
2023-04-04T14:51:03.923Z,3.60
2023-04-04T14:53:32.496Z,3.22
2023-04-04T14:56:00.694Z,3.97
2023-04-04T14:58:29.051Z,3.97
2023-04-04T15:01:01.983Z,4.07
2023-04-04T15:03:35.009Z,4.47
2023-04-04T15:06:03.586Z,4.50
2023-04-04T15:08:31.947Z,4.30
2023-04-04T15:11:02.311Z,4.83
2023-04-04T15:13:30.479Z,4.27
2023-04-04T15:16:00.333Z,4.90
2023-04-04T15:18:29.470Z,5.50
2023-04-04T15:21:00.171Z,5.40
2023-04-04T15:23:28.486Z,4.10
2023-04-04T15:25:56.861Z,4.53
2023-04-04T15:28:29.113Z,4.00
2023-04-04T15:30:57.828Z,5.00
2023-04-04T15:33:27.429Z,4.50
2023-04-04T15:35:55.673Z,4.20
2023-04-04T15:38:25.221Z,4.87
2023-04-04T15:40:53.366Z,4.47
2023-04-04T15:43:21.432Z,4.20
2023-04-04T15:45:49.664Z,4.13
2023-04-04T15:48:18.108Z,3.57
2023-04-04T15:50:46.134Z,3.30
2023-04-04T15:53:14.246Z,3.70
2023-04-04T15:55:45.656Z,4.03
2023-04-04T15:58:16.329Z,3.97
2023-04-04T16:00:47.505Z,5.03
2023-04-04T16:03:16.027Z,4.73
2023-04-04T16:05:44.153Z,4.40
2023-04-04T16:08:14.700Z,4.93
2023-04-04T16:10:44.787Z,5.00
2023-04-04T16:13:14.408Z,5.33
2023-04-04T16:15:42.695Z,4.83
2023-04-04T16:18:11.552Z,5.20
2023-04-04T16:20:39.988Z,5.30
2023-04-04T16:23:08.213Z,5.10
2023-04-04T16:25:36.632Z,5.63
2023-04-04T16:28:06.342Z,5.23
2023-04-04T16:30:34.550Z,5.20
2023-04-04T16:33:02.827Z,5.60
2023-04-04T16:35:32.761Z,5.23
2023-04-04T16:38:00.896Z,4.93
2023-04-04T16:40:29.033Z,4.90
2023-04-04T16:42:57.111Z,4.90
2023-04-04T16:45:27.203Z,5.33
2023-04-04T16:47:55.262Z,4.17
2023-04-04T16:50:23.380Z,4.00
2023-04-04T16:52:51.645Z,3.67
2023-04-04T16:55:26.537Z,4.20
2023-04-04T16:57:54.986Z,3.93
2023-04-04T17:00:23.742Z,4.53
2023-04-04T17:02:53.709Z,4.20
2023-04-04T17:05:22.675Z,3.87
2023-04-04T17:07:53.011Z,4.13
2023-04-04T17:10:21.489Z,4.43
2023-04-04T17:12:49.504Z,3.90
2023-04-04T17:15:18.063Z,4.07
2023-04-04T17:17:46.377Z,4.37
2023-04-04T17:20:19.289Z,4.80
2023-04-04T17:22:49.809Z,4.43
2023-04-04T17:25:18.728Z,4.40
2023-04-04T17:27:46.870Z,4.37
2023-04-04T17:30:15.975Z,4.27
2023-04-04T17:32:44.601Z,4.33
2023-04-04T17:35:13.001Z,4.20
2023-04-04T17:38:11.422Z,3.60
2023-04-04T17:43:32.533Z,4.37
2023-04-04T17:46:01.597Z,4.40
2023-04-04T17:48:32.688Z,4.57
2023-04-04T17:51:01.482Z,4.73
2023-04-04T17:53:29.523Z,4.77
2023-04-04T17:55:58.933Z,4.60
2023-04-04T17:58:27.317Z,4.77
2023-04-04T18:00:57.712Z,5.23
2023-04-04T18:03:26.651Z,4.90
2023-04-04T18:05:54.877Z,5.20
2023-04-04T18:08:28.014Z,4.37
2023-04-04T18:11:12.712Z,4.60
2023-04-04T18:13:42.277Z,4.23
2023-04-04T18:16:10.433Z,5.23
2023-04-04T18:18:40.566Z,5.57
2023-04-04T18:21:08.727Z,4.13
2023-04-04T18:23:37.326Z,4.43
2023-04-04T18:26:05.518Z,4.47
2023-04-04T18:28:33.537Z,5.43
2023-04-04T18:31:02.971Z,5.70
2023-04-04T18:33:31.245Z,4.50
2023-04-04T18:36:00.077Z,4.60
2023-04-04T18:38:28.209Z,5.20
2023-04-04T18:40:57.245Z,5.17
2023-04-04T18:43:26.630Z,6.30
2023-04-04T18:45:55.159Z,6.30
2023-04-04T18:48:25.626Z,7.20
2023-04-04T18:50:54.059Z,6.37
2023-04-04T18:53:23.544Z,6.67
2023-04-04T18:55:53.305Z,6.93
2023-04-04T18:58:21.482Z,6.80
2023-04-04T19:00:52.597Z,6.57
2023-04-04T19:03:21.117Z,5.47
2023-04-04T19:05:51.117Z,5.47
2023-04-04T19:08:20.239Z,5.47
2023-04-04T19:10:50.913Z,6.03
2023-04-04T19:13:26.136Z,5.53
2023-04-04T19:15:54.508Z,5.43
2023-04-04T19:18:22.589Z,5.50
2023-04-04T19:20:52.467Z,6.37
2023-04-04T19:23:21.526Z,6.10
2023-04-04T19:25:51.033Z,5.07
2023-04-04T19:28:19.169Z,5.73
2023-04-04T19:30:50.350Z,5.97
2023-04-04T19:33:20.454Z,6.00
2023-04-04T19:35:53.818Z,6.33
2023-04-04T19:38:25.178Z,5.70
2023-04-04T19:40:59.273Z,6.63
2023-04-04T19:43:29.176Z,6.60
2023-04-04T19:45:59.029Z,6.90
2023-04-04T19:48:45.031Z,6.97
2023-04-04T19:51:50.032Z,6.27
2023-04-04T19:54:23.410Z,7.13
2023-04-04T19:56:53.189Z,6.47
2023-04-04T19:59:55.900Z,6.47
2023-04-04T20:02:58.430Z,6.47
2023-04-04T20:16:29.160Z,6.07
2023-04-04T20:19:10.592Z,6.67
2023-04-04T20:21:47.138Z,6.70
2023-04-04T20:24:21.110Z,6.03
2023-04-04T20:27:12.853Z,7.40
2023-04-04T20:29:47.241Z,9.63
2023-04-04T20:32:20.470Z,7.53
2023-04-04T20:34:56.262Z,7.27
2023-04-04T20:37:41.901Z,6.77
2023-04-04T20:40:37.294Z,6.60
2023-04-04T20:53:59.905Z,7.13
2023-04-04T20:56:55.536Z,6.10
2023-04-04T20:59:37.032Z,5.90
2023-04-04T21:02:33.083Z,6.23
2023-04-04T21:11:06.708Z,6.67
2023-04-04T21:19:36.321Z,7.03
2023-04-04T21:22:29.010Z,6.60
2023-04-04T21:24:57.576Z,7.00
2023-04-04T21:27:36.470Z,7.07
2023-04-04T21:30:11.337Z,6.50
2023-04-04T21:32:44.282Z,6.77
2023-04-04T21:35:13.300Z,6.80
2023-04-04T21:37:41.798Z,6.67
2023-04-04T21:40:13.285Z,7.10
2023-04-04T21:42:43.710Z,6.07
2023-04-04T21:45:15.561Z,6.93
2023-04-04T21:47:43.804Z,5.77
2023-04-04T21:50:12.365Z,6.83
2023-04-04T21:52:42.322Z,6.27
2023-04-04T21:55:11.691Z,6.13
2023-04-04T21:57:55.965Z,6.53
2023-04-04T22:00:28.277Z,6.70
2023-04-04T22:03:10.301Z,6.53
2023-04-04T22:05:41.036Z,6.57
2023-04-04T22:08:13.477Z,6.57
2023-04-04T22:10:55.275Z,6.87
2023-04-04T22:13:51.427Z,7.00
2023-04-04T22:19:42.990Z,6.63
2023-04-04T22:28:50.466Z,7.77
2023-04-04T22:31:20.161Z,6.80
2023-04-04T22:33:51.872Z,7.07
2023-04-04T22:36:37.021Z,6.87
2023-04-04T22:42:05.119Z,6.87
2023-04-04T22:44:37.362Z,6.70
2023-04-04T22:47:16.717Z,6.73
2023-04-04T22:49:49.171Z,6.83
2023-04-04T22:52:19.093Z,6.97
2023-04-04T22:54:49.118Z,7.13
2023-04-04T22:57:17.482Z,6.97
2023-04-04T22:59:58.021Z,7.50
2023-04-04T23:02:27.620Z,7.00
2023-04-04T23:04:59.212Z,6.70
2023-04-04T23:07:28.511Z,6.97
2023-04-04T23:09:56.579Z,6.63
2023-04-04T23:12:24.556Z,6.40
2023-04-04T23:14:54.341Z,6.43
2023-04-04T23:17:22.461Z,7.30
2023-04-04T23:19:50.572Z,6.80
2023-04-04T23:22:18.579Z,7.47
2023-04-04T23:24:47.066Z,6.50
2023-04-04T23:27:16.084Z,7.03
2023-04-04T23:29:44.393Z,6.97
2023-04-04T23:32:13.959Z,6.90
2023-04-04T23:34:42.027Z,7.20
2023-04-04T23:37:10.003Z,7.03
2023-04-04T23:39:38.505Z,6.10
2023-04-04T23:42:07.371Z,6.90
2023-04-04T23:44:35.681Z,7.40
2023-04-04T23:47:04.275Z,6.50
2023-04-04T23:49:34.295Z,6.63
2023-04-04T23:52:02.341Z,6.43
2023-04-04T23:54:30.649Z,7.77
2023-04-04T23:56:59.699Z,6.63
2023-04-04T23:59:29.212Z,7.47
